createdAt,value
2019-06-10T00:01:46.353Z,100378.85
2019-06-10T00:06:48.353Z,100371.57
2019-06-10T00:11:52.279Z,100369.40
2019-06-10T00:16:54.313Z,100351.25
2019-06-10T00:21:57.337Z,100360.28
2019-06-10T00:27:00.336Z,100355.53
2019-06-10T00:32:06.538Z,100346.72
2019-06-10T00:37:12.016Z,100347.41
2019-06-10T00:42:14.882Z,100345.58
2019-06-10T00:47:15.669Z,100339.75
2019-06-10T00:52:17.847Z,100325.27
2019-06-10T00:57:20.888Z,100324.84
2019-06-10T01:02:23.307Z,100311.02
2019-06-10T01:07:25.299Z,100310.48
2019-06-10T01:12:27.342Z,100309.07
2019-06-10T01:17:31.149Z,100304.84
2019-06-10T01:22:33.429Z,100306.09
2019-06-10T01:27:35.488Z,100305.80
2019-06-10T01:32:37.846Z,100306.41
2019-06-10T01:37:41.368Z,100297.27
2019-06-10T01:42:43.615Z,100301.90
2019-06-10T01:47:45.775Z,100302.59
2019-06-10T01:52:47.957Z,100279.92
2019-06-10T01:57:51.803Z,100273.79
2019-06-10T02:02:54.018Z,100259.34
2019-06-10T02:07:56.100Z,100270.31
2019-06-10T02:12:58.177Z,100264.98
2019-06-10T02:18:01.150Z,100258.02
2019-06-10T02:23:03.334Z,100263.31
2019-06-10T02:28:05.403Z,100245.98
2019-06-10T02:33:07.509Z,100212.89
2019-06-10T02:38:09.577Z,100216.58
2019-06-10T02:43:17.851Z,100204.78
2019-06-10T02:48:21.254Z,100218.64
2019-06-10T02:53:29.927Z,100207.98
2019-06-10T02:58:33.308Z,100201.20
2019-06-10T03:03:39.337Z,100198.34
2019-06-10T03:08:36.349Z,100194.04
2019-06-10T03:13:37.675Z,100191.67
2019-06-10T03:18:39.758Z,100185.81
2019-06-10T03:23:42.714Z,100184.38
2019-06-10T03:28:44.861Z,100171.97
2019-06-10T03:33:47.894Z,100178.43
2019-06-10T03:38:50.539Z,100170.94
2019-06-10T03:43:53.073Z,100185.09
2019-06-10T03:48:55.234Z,100198.41
2019-06-10T03:53:57.268Z,100201.39
2019-06-10T03:58:59.360Z,100201.00
2019-06-10T04:04:02.334Z,100194.64
2019-06-10T04:09:05.620Z,100215.52
2019-06-10T04:14:07.655Z,100201.16
2019-06-10T04:19:09.857Z,100194.20
2019-06-10T04:24:12.811Z,100183.23
2019-06-10T04:29:15.074Z,100202.41
2019-06-10T04:34:18.268Z,100201.19
2019-06-10T04:39:23.361Z,100185.81
2019-06-10T04:44:26.302Z,100171.16
2019-06-10T04:49:29.765Z,100155.48
2019-06-10T04:54:33.284Z,100178.32
2019-06-10T04:59:35.659Z,100194.23
2019-06-10T05:04:42.486Z,100184.60
2019-06-10T05:09:44.073Z,100173.44
2019-06-10T05:14:46.122Z,100156.79
2019-06-10T05:19:48.218Z,100163.20
2019-06-10T05:24:52.631Z,100171.37
2019-06-10T05:29:54.225Z,100166.90
2019-06-10T05:34:56.302Z,100164.03
2019-06-10T05:39:58.402Z,100171.46
2019-06-10T05:45:02.966Z,100174.97
2019-06-10T05:50:05.949Z,100175.80
2019-06-10T05:55:12.103Z,100172.04
2019-06-10T06:00:15.039Z,100170.22
2019-06-10T06:05:17.685Z,100176.11
2019-06-10T06:10:22.151Z,100169.90
2019-06-10T06:15:25.233Z,100154.13
2019-06-10T06:20:27.712Z,100149.06
2019-06-10T06:25:30.515Z,100150.33
2019-06-10T06:30:36.037Z,100146.52
2019-06-10T06:35:42.832Z,100154.95
2019-06-10T06:40:43.541Z,100151.27
2019-06-10T06:45:45.648Z,100155.23
2019-06-10T06:51:01.824Z,100156.66
2019-06-10T06:55:55.768Z,100168.42
2019-06-10T07:01:05.976Z,100158.67
2019-06-10T07:06:02.447Z,100148.47
2019-06-10T07:11:05.044Z,100150.80
2019-06-10T07:16:26.679Z,100144.51
2019-06-10T07:21:28.995Z,100151.20
2019-06-10T07:26:34.100Z,100147.81
2019-06-10T07:31:36.525Z,100144.95
2019-06-10T07:36:39.057Z,100136.66
2019-06-10T07:41:44.148Z,100136.27
2019-06-10T07:46:45.681Z,100130.14
2019-06-10T07:51:48.047Z,100122.57
2019-06-10T07:56:53.496Z,100121.98
2019-06-10T08:01:55.104Z,100118.33
2019-06-10T08:06:57.721Z,100116.44
2019-06-10T08:12:03.422Z,100123.69
2019-06-10T08:17:03.777Z,100123.55
2019-06-10T08:22:05.855Z,100115.06
2019-06-10T08:27:07.915Z,100116.44
2019-06-10T08:32:09.962Z,100110.50
2019-06-10T08:37:13.574Z,100118.59
2019-06-10T08:42:16.148Z,100128.89
2019-06-10T08:47:18.300Z,100117.47
2019-06-10T08:52:23.510Z,100118.25
2019-06-10T08:57:24.339Z,100115.06
2019-06-10T09:02:26.492Z,100131.79
2019-06-10T09:07:28.562Z,100138.87
2019-06-10T09:12:36.339Z,100127.91
2019-06-10T09:17:34.607Z,100129.11
2019-06-10T09:22:36.711Z,100128.33
2019-06-10T09:27:40.048Z,100124.29
2019-06-10T09:32:48.433Z,100132.85
2019-06-10T09:37:50.017Z,100131.17
2019-06-10T09:42:54.765Z,100143.40
2019-06-10T09:47:59.886Z,100136.95
2019-06-10T09:52:59.485Z,100136.75
2019-06-10T09:58:03.197Z,100141.91
2019-06-10T10:03:05.600Z,100147.51
2019-06-10T10:08:08.180Z,100145.37
2019-06-10T10:13:12.900Z,100140.58
2019-06-10T10:18:14.499Z,100138.72
2019-06-10T10:23:16.674Z,100133.47
2019-06-10T10:28:22.096Z,100136.79
2019-06-10T10:33:26.820Z,100140.00
2019-06-10T10:38:26.768Z,100136.17
2019-06-10T10:43:34.117Z,100124.62
2019-06-10T10:48:33.555Z,100131.25
2019-06-10T10:53:36.413Z,100126.20
2019-06-10T10:58:38.476Z,100114.91
2019-06-10T11:03:43.367Z,100099.83
2019-06-10T11:08:46.419Z,100099.83
2019-06-10T11:13:55.998Z,100084.13
2019-06-10T11:18:56.355Z,100081.38
2019-06-10T11:24:01.542Z,100078.56
2019-06-10T11:29:03.169Z,100068.25
2019-06-10T11:34:05.228Z,100064.16
2019-06-10T11:39:07.797Z,100052.28
2019-06-10T11:44:09.842Z,100046.72
2019-06-10T11:49:12.562Z,100046.67
2019-06-10T11:54:14.903Z,100035.42
2019-06-10T11:59:17.000Z,100024.49
2019-06-10T12:04:21.639Z,100006.98
2019-06-10T12:09:24.866Z,99990.62
2019-06-10T12:14:27.311Z,99990.62
2019-06-10T12:19:29.511Z,99998.80
2019-06-10T12:24:33.153Z,99998.80
2019-06-10T12:29:35.528Z,99987.48
2019-06-10T12:34:37.634Z,99970.13
2019-06-10T12:39:42.198Z,99973.20
2019-06-10T12:44:44.740Z,99978.36
2019-06-10T12:49:46.923Z,99961.13
2019-06-10T12:54:48.992Z,99944.56
2019-06-10T12:59:52.275Z,99932.73
2019-06-10T13:04:55.543Z,99932.59
2019-06-10T13:09:57.947Z,99929.83
2019-06-10T13:15:03.400Z,99934.64
2019-06-10T13:20:06.325Z,99932.59
2019-06-10T13:25:09.015Z,99911.03
2019-06-10T13:30:11.521Z,99903.86
2019-06-10T13:35:13.662Z,99893.86
2019-06-10T13:40:17.390Z,99883.48
2019-06-10T13:45:19.663Z,99883.04
2019-06-10T13:50:24.723Z,99885.33
2019-06-10T13:55:26.048Z,99873.38
2019-06-10T14:00:41.717Z,99866.41
2019-06-10T14:05:34.652Z,99878.45
2019-06-10T14:10:36.857Z,99869.50
2019-06-10T14:15:38.963Z,99866.16
2019-06-10T14:20:44.040Z,99848.91
2019-06-10T14:25:45.205Z,99857.87
2019-06-10T14:30:47.290Z,99839.32
2019-06-10T14:35:49.366Z,99833.68
2019-06-10T14:40:52.574Z,99834.41
2019-06-10T14:45:54.903Z,99827.89
2019-06-10T14:50:57.197Z,99827.89
2019-06-10T14:55:59.282Z,99832.75
2019-06-10T15:01:07.508Z,99836.33
2019-06-10T15:06:13.501Z,99832.59
2019-06-10T15:11:15.899Z,99809.61
2019-06-10T15:16:18.253Z,99809.61
2019-06-10T15:21:23.004Z,99801.02
2019-06-10T15:26:24.286Z,99783.52
2019-06-10T15:31:26.367Z,99773.77
2019-06-10T15:36:28.462Z,99769.77
2019-06-10T15:41:32.284Z,99769.77
2019-06-10T15:46:34.569Z,99781.63
2019-06-10T15:51:36.639Z,99765.73
2019-06-10T15:56:48.658Z,99767.33
2019-06-10T16:01:42.804Z,99767.33
2019-06-10T16:06:44.903Z,99765.75
2019-06-10T16:11:47.002Z,99770.26
2019-06-10T16:16:49.071Z,99778.75
2019-06-10T16:21:52.506Z,99784.91
2019-06-10T16:26:54.707Z,99778.13
2019-06-10T16:31:56.804Z,99777.58
2019-06-10T16:36:58.868Z,99779.37
2019-06-10T16:42:02.997Z,99779.37
2019-06-10T16:47:06.451Z,99780.12
2019-06-10T16:52:08.806Z,99780.12
2019-06-10T16:57:12.323Z,99776.12
2019-06-10T17:02:14.725Z,99797.13
2019-06-10T17:07:16.772Z,99793.89
2019-06-10T17:12:19.858Z,99791.22
2019-06-10T17:17:24.815Z,99793.39
2019-06-10T17:22:28.625Z,99803.06
2019-06-10T17:27:30.068Z,99791.47
2019-06-10T17:32:32.912Z,99789.58
2019-06-10T17:37:35.140Z,99758.52
2019-06-10T17:42:38.400Z,99758.52
2019-06-10T17:47:40.687Z,99760.14
2019-06-10T17:52:45.608Z,99765.01
2019-06-10T17:57:47.664Z,99759.32
2019-06-10T18:02:49.725Z,99770.30
2019-06-10T18:07:52.695Z,99762.72
2019-06-10T18:12:55.254Z,99739.02
2019-06-10T18:17:57.338Z,99750.52
2019-06-10T18:22:59.489Z,99756.66
2019-06-10T18:28:03.336Z,99753.39
2019-06-10T18:33:05.422Z,99756.84
2019-06-10T18:38:07.485Z,99747.36
2019-06-10T18:43:09.532Z,99708.80
2019-06-10T18:48:12.598Z,99701.14
2019-06-10T18:53:14.764Z,99739.20
2019-06-10T18:58:16.810Z,99775.14
2019-06-10T19:03:18.953Z,99780.12
2019-06-10T19:08:22.362Z,99770.13
2019-06-10T19:13:24.681Z,99838.09
2019-06-10T19:18:27.077Z,99853.47
2019-06-10T19:23:30.223Z,99865.34
2019-06-10T19:28:33.857Z,99866.59
2019-06-10T19:33:37.551Z,99901.86
2019-06-10T19:38:42.871Z,99885.30
2019-06-10T19:43:45.521Z,99879.83
2019-06-10T19:48:57.372Z,99863.18
2019-06-10T19:53:52.678Z,99831.59
2019-06-10T19:58:54.942Z,99844.58
2019-06-10T20:03:56.999Z,99810.52
2019-06-10T20:08:59.051Z,99782.84
2019-06-10T20:14:02.536Z,99726.20
2019-06-10T20:19:04.769Z,99703.16
2019-06-10T20:24:06.875Z,99718.48
2019-06-10T20:29:08.992Z,99705.14
2019-06-10T20:34:13.297Z,99684.56
2019-06-10T20:39:15.103Z,99701.30
2019-06-10T20:44:17.146Z,99692.70
2019-06-10T20:49:19.186Z,99680.32
2019-06-10T20:54:23.199Z,99685.73
2019-06-10T20:59:26.364Z,99677.73
2019-06-10T21:04:32.317Z,99672.98
2019-06-10T21:09:35.573Z,99661.71
2019-06-10T21:14:37.657Z,99650.78
2019-06-10T21:19:41.034Z,99651.25
2019-06-10T21:24:44.492Z,99647.20
2019-06-10T21:29:47.527Z,99677.89
2019-06-10T21:34:53.460Z,99704.30
2019-06-10T21:39:55.418Z,99737.28
2019-06-10T21:44:57.911Z,99759.17
2019-06-10T21:49:59.991Z,99761.91
2019-06-10T21:55:03.022Z,99784.45
2019-06-10T22:00:17.239Z,99788.68
2019-06-10T22:05:19.621Z,99810.09
2019-06-10T22:10:22.900Z,99807.94
2019-06-10T22:15:25.314Z,99813.95
2019-06-10T22:20:27.539Z,99816.53
2019-06-10T22:25:29.683Z,99807.70
2019-06-10T22:30:32.223Z,99785.91
2019-06-10T22:35:36.672Z,99780.28
2019-06-10T22:40:38.728Z,99756.48
2019-06-10T22:45:42.474Z,99738.48
2019-06-10T22:50:44.697Z,99728.40
2019-06-10T22:55:50.889Z,99735.43
2019-06-10T23:00:56.544Z,99744.77
2019-06-10T23:05:58.900Z,99741.75
2019-06-10T23:11:02.804Z,99742.25
2019-06-10T23:16:04.916Z,99723.78
2019-06-10T23:21:06.999Z,99727.33
2019-06-10T23:26:09.071Z,99723.34
2019-06-10T23:31:12.784Z,99722.91
2019-06-10T23:36:14.948Z,99723.21
2019-06-10T23:41:17.052Z,99744.92
2019-06-10T23:46:19.158Z,99755.92
2019-06-10T23:51:22.789Z,99765.61
2019-06-10T23:56:25.172Z,99794.30
